sensor_id;sensor_type;location;lat;lon;timestamp;pressure;altitude;pressure_sealevel;temperature;humidity
28683;BME280;15862;43.062;25.626;2022-12-11T00:01:56;98051.91;;;17.50;100.00
28683;BME280;15862;43.062;25.626;2022-12-11T00:04:22;98055.94;;;17.59;100.00
28683;BME280;15862;43.062;25.626;2022-12-11T00:06:47;98047.28;;;17.64;100.00
28683;BME280;15862;43.062;25.626;2022-12-11T00:09:16;98038.25;;;17.67;100.00
28683;BME280;15862;43.062;25.626;2022-12-11T00:11:41;98033.81;;;17.74;100.00
28683;BME280;15862;43.062;25.626;2022-12-11T00:14:07;98074.41;;;17.76;100.00
28683;BME280;15862;43.062;25.626;2022-12-11T00:16:32;98059.72;;;17.75;100.00
28683;BME280;15862;43.062;25.626;2022-12-11T00:18:58;98053.31;;;17.71;100.00
28683;BME280;15862;43.062;25.626;2022-12-11T00:21:23;98045.44;;;17.78;100.00
28683;BME280;15862;43.062;25.626;2022-12-11T00:23:49;98037.22;;;17.81;100.00
28683;BME280;15862;43.062;25.626;2022-12-11T00:26:15;98064.34;;;17.80;100.00
28683;BME280;15862;43.062;25.626;2022-12-11T00:28:41;98078.22;;;17.80;100.00
28683;BME280;15862;43.062;25.626;2022-12-11T00:31:08;98064.34;;;17.80;100.00
28683;BME280;15862;43.062;25.626;2022-12-11T00:33:35;98045.66;;;17.76;100.00
28683;BME280;15862;43.062;25.626;2022-12-11T00:36:01;98069.38;;;17.81;100.00
28683;BME280;15862;43.062;25.626;2022-12-11T00:38:26;98075.00;;;17.72;100.00
28683;BME280;15862;43.062;25.626;2022-12-11T00:40:57;98056.31;;;17.81;100.00
28683;BME280;15862;43.062;25.626;2022-12-11T00:43:22;98065.97;;;17.87;100.00
28683;BME280;15862;43.062;25.626;2022-12-11T00:45:48;98049.50;;;17.80;100.00
28683;BME280;15862;43.062;25.626;2022-12-11T00:48:13;98042.66;;;17.79;100.00
28683;BME280;15862;43.062;25.626;2022-12-11T00:50:39;98047.50;;;17.76;100.00
28683;BME280;15862;43.062;25.626;2022-12-11T00:53:05;98033.41;;;17.70;100.00
28683;BME280;15862;43.062;25.626;2022-12-11T00:55:35;98020.78;;;17.61;100.00
28683;BME280;15862;43.062;25.626;2022-12-11T00:58:01;98012.13;;;17.61;100.00
28683;BME280;15862;43.062;25.626;2022-12-11T01:00:26;98010.13;;;17.56;100.00
28683;BME280;15862;43.062;25.626;2022-12-11T01:02:51;98016.16;;;17.57;100.00
28683;BME280;15862;43.062;25.626;2022-12-11T01:05:17;98005.69;;;17.63;100.00
28683;BME280;15862;43.062;25.626;2022-12-11T01:07:42;97996.66;;;17.65;100.00
28683;BME280;15862;43.062;25.626;2022-12-11T01:10:11;97964.06;;;17.74;100.00
28683;BME280;15862;43.062;25.626;2022-12-11T01:13:08;97948.19;;;17.82;100.00
28683;BME280;15862;43.062;25.626;2022-12-11T01:15:40;97926.50;;;17.82;100.00
28683;BME280;15862;43.062;25.626;2022-12-11T01:18:05;97931.31;;;17.78;100.00
28683;BME280;15862;43.062;25.626;2022-12-11T01:20:31;97930.09;;;17.81;100.00
28683;BME280;15862;43.062;25.626;2022-12-11T01:22:58;97910.75;;;17.95;100.00
28683;BME280;15862;43.062;25.626;2022-12-11T01:25:26;97889.53;;;17.78;100.00
28683;BME280;15862;43.062;25.626;2022-12-11T01:27:53;97899.50;;;17.94;100.00
28683;BME280;15862;43.062;25.626;2022-12-11T01:30:22;97900.69;;;17.98;100.00
28683;BME280;15862;43.062;25.626;2022-12-11T01:32:48;97918.28;;;18.16;100.00
28683;BME280;15862;43.062;25.626;2022-12-11T01:35:13;97898.41;;;18.21;100.00
28683;BME280;15862;43.062;25.626;2022-12-11T01:37:39;97869.00;;;18.19;100.00
28683;BME280;15862;43.062;25.626;2022-12-11T01:40:07;97864.22;;;18.16;100.00
28683;BME280;15862;43.062;25.626;2022-12-11T01:42:33;97847.13;;;18.14;100.00
28683;BME280;15862;43.062;25.626;2022-12-11T01:45:22;97847.97;;;18.08;100.00
28683;BME280;15862;43.062;25.626;2022-12-11T01:47:59;97840.94;;;18.08;100.00
28683;BME280;15862;43.062;25.626;2022-12-11T01:50:27;97846.72;;;18.17;100.00
28683;BME280;15862;43.062;25.626;2022-12-11T01:52:53;97815.06;;;18.00;100.00
28683;BME280;15862;43.062;25.626;2022-12-11T01:55:19;97856.56;;;18.15;100.00
28683;BME280;15862;43.062;25.626;2022-12-11T01:57:47;97849.09;;;18.18;100.00
28683;BME280;15862;43.062;25.626;2022-12-11T02:00:14;97829.34;;;18.29;100.00
28683;BME280;15862;43.062;25.626;2022-12-11T02:02:40;97808.44;;;18.29;100.00
28683;BME280;15862;43.062;25.626;2022-12-11T02:05:06;97798.81;;;18.29;100.00
28683;BME280;15862;43.062;25.626;2022-12-11T02:07:54;97801.31;;;18.42;100.00
28683;BME280;15862;43.062;25.626;2022-12-11T02:10:23;97780.97;;;18.44;100.00
28683;BME280;15862;43.062;25.626;2022-12-11T02:16:32;97803.28;;;18.46;100.00
28683;BME280;15862;43.062;25.626;2022-12-11T02:19:48;97790.97;;;18.53;100.00
28683;BME280;15862;43.062;25.626;2022-12-11T02:21:55;97859.38;;;18.50;100.00
28683;BME280;15862;43.062;25.626;2022-12-11T02:24:26;97830.19;;;18.53;100.00
28683;BME280;15862;43.062;25.626;2022-12-11T02:27:20;97814.88;;;18.57;100.00
28683;BME280;15862;43.062;25.626;2022-12-11T02:30:00;97805.88;;;18.53;100.00
28683;BME280;15862;43.062;25.626;2022-12-11T02:37:30;97788.50;;;18.58;100.00
28683;BME280;15862;43.062;25.626;2022-12-11T02:39:56;97773.25;;;18.55;100.00
28683;BME280;15862;43.062;25.626;2022-12-11T02:42:26;97800.34;;;18.61;100.00
28683;BME280;15862;43.062;25.626;2022-12-11T02:44:53;97759.94;;;18.57;100.00
28683;BME280;15862;43.062;25.626;2022-12-11T02:47:21;97765.78;;;18.59;100.00
28683;BME280;15862;43.062;25.626;2022-12-11T02:49:48;97762.81;;;18.49;100.00
28683;BME280;15862;43.062;25.626;2022-12-11T02:52:17;97754.75;;;18.50;100.00
28683;BME280;15862;43.062;25.626;2022-12-11T02:54:45;97746.75;;;18.45;100.00
28683;BME280;15862;43.062;25.626;2022-12-11T02:57:24;97748.09;;;18.54;100.00
28683;BME280;15862;43.062;25.626;2022-12-11T02:59:52;97773.63;;;18.59;100.00
28683;BME280;15862;43.062;25.626;2022-12-11T03:02:17;97766.81;;;18.51;100.00
28683;BME280;15862;43.062;25.626;2022-12-11T03:04:43;97765.16;;;18.57;100.00
28683;BME280;15862;43.062;25.626;2022-12-11T03:07:20;97773.44;;;18.54;100.00
28683;BME280;15862;43.062;25.626;2022-12-11T03:09:48;97752.63;;;18.41;100.00
28683;BME280;15862;43.062;25.626;2022-12-11T03:12:19;97776.06;;;18.54;100.00
28683;BME280;15862;43.062;25.626;2022-12-11T03:14:47;97769.16;;;18.42;100.00
28683;BME280;15862;43.062;25.626;2022-12-11T03:17:17;97780.44;;;18.60;100.00
28683;BME280;15862;43.062;25.626;2022-12-11T03:22:37;97756.56;;;18.74;100.00
28683;BME280;15862;43.062;25.626;2022-12-11T03:25:38;97747.47;;;18.59;100.00
28683;BME280;15862;43.062;25.626;2022-12-11T03:28:00;97778.31;;;18.75;100.00
28683;BME280;15862;43.062;25.626;2022-12-11T03:30:30;97768.72;;;18.87;100.00
28683;BME280;15862;43.062;25.626;2022-12-11T03:33:21;97771.38;;;18.80;100.00
28683;BME280;15862;43.062;25.626;2022-12-11T03:35:51;97739.34;;;18.85;100.00
28683;BME280;15862;43.062;25.626;2022-12-11T03:38:40;97763.03;;;18.90;100.00
28683;BME280;15862;43.062;25.626;2022-12-11T03:41:09;97767.91;;;18.86;100.00
28683;BME280;15862;43.062;25.626;2022-12-11T03:43:37;97766.38;;;18.79;100.00
28683;BME280;15862;43.062;25.626;2022-12-11T03:46:04;97765.22;;;18.75;100.00
28683;BME280;15862;43.062;25.626;2022-12-11T03:48:35;97770.88;;;18.72;100.00
28683;BME280;15862;43.062;25.626;2022-12-11T03:51:05;97788.81;;;18.68;100.00
28683;BME280;15862;43.062;25.626;2022-12-11T03:53:33;97801.91;;;18.86;100.00
28683;BME280;15862;43.062;25.626;2022-12-11T03:55:59;97807.88;;;18.93;100.00
28683;BME280;15862;43.062;25.626;2022-12-11T03:58:26;97811.31;;;18.94;100.00
28683;BME280;15862;43.062;25.626;2022-12-11T04:00:51;97832.91;;;18.89;100.00
28683;BME280;15862;43.062;25.626;2022-12-11T04:03:17;97846.50;;;18.98;100.00
28683;BME280;15862;43.062;25.626;2022-12-11T04:05:50;97852.09;;;19.01;100.00
28683;BME280;15862;43.062;25.626;2022-12-11T04:08:17;97857.56;;;19.00;100.00
28683;BME280;15862;43.062;25.626;2022-12-11T04:10:43;97855.59;;;18.95;100.00
28683;BME280;15862;43.062;25.626;2022-12-11T04:13:09;97862.53;;;19.08;100.00
28683;BME280;15862;43.062;25.626;2022-12-11T04:15:35;97853.53;;;19.04;100.00
28683;BME280;15862;43.062;25.626;2022-12-11T04:18:01;97849.28;;;19.03;100.00
28683;BME280;15862;43.062;25.626;2022-12-11T04:20:45;97836.03;;;18.98;100.00
28683;BME280;15862;43.062;25.626;2022-12-11T04:23:29;97836.97;;;18.85;100.00
28683;BME280;15862;43.062;25.626;2022-12-11T04:26:16;97810.84;;;18.79;100.00
28683;BME280;15862;43.062;25.626;2022-12-11T04:28:43;97830.69;;;18.86;100.00
28683;BME280;15862;43.062;25.626;2022-12-11T04:31:19;97838.66;;;18.73;100.00
28683;BME280;15862;43.062;25.626;2022-12-11T04:33:45;97830.22;;;18.71;100.00
28683;BME280;15862;43.062;25.626;2022-12-11T04:36:12;97838.50;;;18.93;100.00
28683;BME280;15862;43.062;25.626;2022-12-11T04:38:37;97828.34;;;19.03;100.00
28683;BME280;15862;43.062;25.626;2022-12-11T04:41:08;97837.63;;;18.99;100.00
28683;BME280;15862;43.062;25.626;2022-12-11T04:43:34;97837.22;;;19.02;100.00
28683;BME280;15862;43.062;25.626;2022-12-11T04:46:02;97827.16;;;18.99;100.00
28683;BME280;15862;43.062;25.626;2022-12-11T04:48:28;97818.31;;;19.00;100.00
28683;BME280;15862;43.062;25.626;2022-12-11T04:50:53;97820.31;;;18.98;100.00
28683;BME280;15862;43.062;25.626;2022-12-11T04:53:19;97801.28;;;18.91;100.00
28683;BME280;15862;43.062;25.626;2022-12-11T04:55:46;97823.16;;;18.96;100.00
28683;BME280;15862;43.062;25.626;2022-12-11T04:58:12;97811.91;;;18.96;100.00
28683;BME280;15862;43.062;25.626;2022-12-11T05:00:39;97817.34;;;18.94;100.00
28683;BME280;15862;43.062;25.626;2022-12-11T05:03:05;97830.44;;;18.94;100.00
28683;BME280;15862;43.062;25.626;2022-12-11T05:05:30;97824.03;;;18.90;100.00
28683;BME280;15862;43.062;25.626;2022-12-11T05:07:56;97840.13;;;18.94;100.00
28683;BME280;15862;43.062;25.626;2022-12-11T05:10:21;97849.94;;;18.98;100.00
28683;BME280;15862;43.062;25.626;2022-12-11T05:12:47;97830.50;;;18.88;100.00
28683;BME280;15862;43.062;25.626;2022-12-11T05:15:12;97842.47;;;19.02;100.00
28683;BME280;15862;43.062;25.626;2022-12-11T05:17:37;97850.91;;;19.04;100.00
28683;BME280;15862;43.062;25.626;2022-12-11T05:20:03;97846.72;;;18.96;100.00
28683;BME280;15862;43.062;25.626;2022-12-11T05:22:29;97836.47;;;18.95;100.00
28683;BME280;15862;43.062;25.626;2022-12-11T05:24:56;97845.50;;;18.99;100.00
28683;BME280;15862;43.062;25.626;2022-12-11T05:27:21;97826.16;;;19.00;100.00
28683;BME280;15862;43.062;25.626;2022-12-11T05:29:47;97826.59;;;18.97;100.00
28683;BME280;15862;43.062;25.626;2022-12-11T05:32:12;97847.09;;;19.00;100.00
28683;BME280;15862;43.062;25.626;2022-12-11T05:34:38;97810.84;;;18.79;100.00
28683;BME280;15862;43.062;25.626;2022-12-11T05:37:03;97840.53;;;18.91;100.00
28683;BME280;15862;43.062;25.626;2022-12-11T05:39:29;97847.81;;;18.89;100.00
28683;BME280;15862;43.062;25.626;2022-12-11T05:41:55;97848.72;;;18.76;100.00
28683;BME280;15862;43.062;25.626;2022-12-11T05:44:20;97864.41;;;18.76;100.00
28683;BME280;15862;43.062;25.626;2022-12-11T05:46:46;97854.59;;;18.72;100.00
28683;BME280;15862;43.062;25.626;2022-12-11T05:49:11;97877.16;;;18.66;100.00
28683;BME280;15862;43.062;25.626;2022-12-11T05:51:36;97860.25;;;18.69;100.00
28683;BME280;15862;43.062;25.626;2022-12-11T05:54:04;97867.81;;;18.77;100.00
28683;BME280;15862;43.062;25.626;2022-12-11T05:56:32;97872.78;;;18.85;100.00
28683;BME280;15862;43.062;25.626;2022-12-11T05:58:59;97857.59;;;18.75;100.00
28683;BME280;15862;43.062;25.626;2022-12-11T06:01:28;97872.91;;;18.72;100.00
28683;BME280;15862;43.062;25.626;2022-12-11T06:03:55;97881.78;;;18.71;100.00
28683;BME280;15862;43.062;25.626;2022-12-11T06:06:21;97883.75;;;18.75;100.00
28683;BME280;15862;43.062;25.626;2022-12-11T06:08:54;97894.59;;;18.79;100.00
28683;BME280;15862;43.062;25.626;2022-12-11T06:11:22;97910.31;;;18.72;100.00
28683;BME280;15862;43.062;25.626;2022-12-11T06:13:47;97916.19;;;18.68;100.00
28683;BME280;15862;43.062;25.626;2022-12-11T06:16:13;97914.44;;;18.62;100.00
28683;BME280;15862;43.062;25.626;2022-12-11T06:18:41;97892.94;;;18.60;100.00
28683;BME280;15862;43.062;25.626;2022-12-11T06:23:37;97905.00;;;18.24;100.00
28683;BME280;15862;43.062;25.626;2022-12-11T06:26:03;97912.38;;;17.96;100.00
28683;BME280;15862;43.062;25.626;2022-12-11T06:28:28;97913.22;;;17.83;100.00
28683;BME280;15862;43.062;25.626;2022-12-11T06:30:57;97907.34;;;17.94;100.00
28683;BME280;15862;43.062;25.626;2022-12-11T06:33:22;97907.75;;;17.98;100.00
28683;BME280;15862;43.062;25.626;2022-12-11T06:35:48;97909.69;;;18.46;100.00
28683;BME280;15862;43.062;25.626;2022-12-11T06:38:13;97901.53;;;18.67;100.00
28683;BME280;15862;43.062;25.626;2022-12-11T06:40:39;97897.50;;;18.64;100.00
28683;BME280;15862;43.062;25.626;2022-12-11T06:43:04;97881.16;;;18.69;100.00
28683;BME280;15862;43.062;25.626;2022-12-11T06:45:30;97902.34;;;18.92;100.00
28683;BME280;15862;43.062;25.626;2022-12-11T06:47:55;97901.19;;;19.06;100.00
28683;BME280;15862;43.062;25.626;2022-12-11T06:50:21;97884.34;;;19.02;100.00
28683;BME280;15862;43.062;25.626;2022-12-11T06:52:46;97921.63;;;19.21;99.89
28683;BME280;15862;43.062;25.626;2022-12-11T06:55:11;97917.28;;;19.33;99.00
28683;BME280;15862;43.062;25.626;2022-12-11T06:57:37;97922.97;;;19.30;99.54
28683;BME280;15862;43.062;25.626;2022-12-11T07:00:03;97917.47;;;19.38;98.79
28683;BME280;15862;43.062;25.626;2022-12-11T07:02:28;97935.06;;;19.49;98.70
28683;BME280;15862;43.062;25.626;2022-12-11T07:04:54;97941.28;;;19.55;96.54
28683;BME280;15862;43.062;25.626;2022-12-11T07:07:19;97943.00;;;19.61;97.49
28683;BME280;15862;43.062;25.626;2022-12-11T07:09:45;97946.97;;;19.70;95.95
28683;BME280;15862;43.062;25.626;2022-12-11T07:12:10;97945.00;;;19.83;94.19
28683;BME280;15862;43.062;25.626;2022-12-11T07:14:36;97952.19;;;19.88;93.94
28683;BME280;15862;43.062;25.626;2022-12-11T07:17:02;97955.63;;;19.88;93.71
28683;BME280;15862;43.062;25.626;2022-12-11T07:19:27;97949.25;;;20.02;93.26
28683;BME280;15862;43.062;25.626;2022-12-11T07:21:53;97946.81;;;21.06;87.86
28683;BME280;15862;43.062;25.626;2022-12-11T07:26:44;97939.63;;;23.54;67.57
28683;BME280;15862;43.062;25.626;2022-12-11T07:29:09;97923.97;;;24.28;62.86
28683;BME280;15862;43.062;25.626;2022-12-11T07:31:35;97936.53;;;24.64;58.67
28683;BME280;15862;43.062;25.626;2022-12-11T07:34:03;97935.56;;;24.27;59.93
28683;BME280;15862;43.062;25.626;2022-12-11T07:36:29;97937.84;;;23.59;61.87
28683;BME280;15862;43.062;25.626;2022-12-11T07:38:55;97946.66;;;23.15;64.55
28683;BME280;15862;43.062;25.626;2022-12-11T07:41:21;97940.91;;;23.35;64.34
28683;BME280;15862;43.062;25.626;2022-12-11T07:43:47;97945.22;;;24.16;59.67
28683;BME280;15862;43.062;25.626;2022-12-11T07:46:16;97945.91;;;24.50;58.60
28683;BME280;15862;43.062;25.626;2022-12-11T07:48:44;97940.72;;;24.38;58.94
28683;BME280;15862;43.062;25.626;2022-12-11T07:51:12;97939.81;;;25.74;54.87
28683;BME280;15862;43.062;25.626;2022-12-11T07:53:42;97946.56;;;26.78;52.00
28683;BME280;15862;43.062;25.626;2022-12-11T07:56:08;97948.03;;;28.81;46.89
28683;BME280;15862;43.062;25.626;2022-12-11T07:58:34;97950.13;;;30.67;41.10
28683;BME280;15862;43.062;25.626;2022-12-11T08:01:00;97954.69;;;30.48;40.07
28683;BME280;15862;43.062;25.626;2022-12-11T08:03:25;97961.22;;;30.37;40.06
28683;BME280;15862;43.062;25.626;2022-12-11T08:05:51;97963.84;;;29.91;40.53
28683;BME280;15862;43.062;25.626;2022-12-11T08:08:17;97961.94;;;29.45;40.24
28683;BME280;15862;43.062;25.626;2022-12-11T08:10:43;97953.81;;;29.59;41.04
28683;BME280;15862;43.062;25.626;2022-12-11T08:13:09;97952.91;;;30.39;40.41
28683;BME280;15862;43.062;25.626;2022-12-11T08:15:35;97932.19;;;30.13;39.79
28683;BME280;15862;43.062;25.626;2022-12-11T08:18:00;97940.56;;;28.83;41.33
28683;BME280;15862;43.062;25.626;2022-12-11T08:20:26;97937.88;;;28.40;42.06
28683;BME280;15862;43.062;25.626;2022-12-11T08:22:52;97924.72;;;28.00;43.26
28683;BME280;15862;43.062;25.626;2022-12-11T08:25:17;97906.00;;;27.57;43.90
28683;BME280;15862;43.062;25.626;2022-12-11T08:27:42;97917.16;;;26.69;45.88
28683;BME280;15862;43.062;25.626;2022-12-11T08:30:09;97919.16;;;25.71;48.09
28683;BME280;15862;43.062;25.626;2022-12-11T08:32:34;97917.53;;;25.24;49.97
28683;BME280;15862;43.062;25.626;2022-12-11T08:35:00;97914.75;;;24.78;50.58
28683;BME280;15862;43.062;25.626;2022-12-11T08:37:25;97905.56;;;24.11;52.94
28683;BME280;15862;43.062;25.626;2022-12-11T08:39:51;97906.63;;;23.73;56.74
28683;BME280;15862;43.062;25.626;2022-12-11T08:42:16;97911.84;;;23.68;57.55
28683;BME280;15862;43.062;25.626;2022-12-11T08:44:42;97905.47;;;23.64;56.53
28683;BME280;15862;43.062;25.626;2022-12-11T08:47:07;97907.63;;;23.67;56.52
28683;BME280;15862;43.062;25.626;2022-12-11T08:49:36;97887.81;;;23.48;55.99
28683;BME280;15862;43.062;25.626;2022-12-11T08:52:03;97912.81;;;23.78;55.50
28683;BME280;15862;43.062;25.626;2022-12-11T08:54:29;97910.56;;;24.87;52.06
28683;BME280;15862;43.062;25.626;2022-12-11T08:56:55;97924.25;;;26.54;48.45
28683;BME280;15862;43.062;25.626;2022-12-11T08:59:20;97915.72;;;27.91;43.38
28683;BME280;15862;43.062;25.626;2022-12-11T09:01:46;97894.78;;;29.47;40.86
28683;BME280;15862;43.062;25.626;2022-12-11T09:04:11;97912.09;;;31.12;38.05
28683;BME280;15862;43.062;25.626;2022-12-11T09:06:36;97914.06;;;32.10;36.11
28683;BME280;15862;43.062;25.626;2022-12-11T09:09:03;97920.03;;;32.91;33.87
28683;BME280;15862;43.062;25.626;2022-12-11T09:11:32;97900.69;;;31.97;35.36
28683;BME280;15862;43.062;25.626;2022-12-11T09:13:58;97905.84;;;31.67;37.25
28683;BME280;15862;43.062;25.626;2022-12-11T09:16:25;97889.25;;;31.06;36.41
28683;BME280;15862;43.062;25.626;2022-12-11T09:18:53;97885.75;;;29.15;40.71
28683;BME280;15862;43.062;25.626;2022-12-11T09:21:21;97894.34;;;29.07;40.28
28683;BME280;15862;43.062;25.626;2022-12-11T09:23:47;97906.03;;;30.15;38.88
28683;BME280;15862;43.062;25.626;2022-12-11T09:26:14;97914.81;;;30.57;37.78
28683;BME280;15862;43.062;25.626;2022-12-11T09:28:41;97911.44;;;29.30;39.92
28683;BME280;15862;43.062;25.626;2022-12-11T09:31:11;97909.44;;;27.57;42.47
28683;BME280;15862;43.062;25.626;2022-12-11T09:33:38;97919.47;;;26.41;45.04
28683;BME280;15862;43.062;25.626;2022-12-11T09:36:04;97928.25;;;25.90;46.62
28683;BME280;15862;43.062;25.626;2022-12-11T09:38:30;97916.81;;;25.02;48.87
28683;BME280;15862;43.062;25.626;2022-12-11T09:40:57;97889.72;;;25.63;47.70
28683;BME280;15862;43.062;25.626;2022-12-11T09:43:51;97902.75;;;25.33;48.67
28683;BME280;15862;43.062;25.626;2022-12-11T09:46:18;97915.19;;;24.44;51.28
28683;BME280;15862;43.062;25.626;2022-12-11T09:48:46;97906.34;;;24.12;53.38
28683;BME280;15862;43.062;25.626;2022-12-11T09:53:55;97878.47;;;23.03;57.99
28683;BME280;15862;43.062;25.626;2022-12-11T10:01:48;97869.84;;;23.07;59.38
28683;BME280;15862;43.062;25.626;2022-12-11T10:04:43;97877.66;;;23.02;60.73
28683;BME280;15862;43.062;25.626;2022-12-11T10:07:13;97861.63;;;22.71;63.60
28683;BME280;15862;43.062;25.626;2022-12-11T10:12:28;97866.72;;;22.94;61.40
28683;BME280;15862;43.062;25.626;2022-12-11T10:17:59;97876.84;;;23.34;59.76
28683;BME280;15862;43.062;25.626;2022-12-11T10:20:35;97894.59;;;23.06;61.64
28683;BME280;15862;43.062;25.626;2022-12-11T10:23:24;97916.78;;;22.49;61.28
28683;BME280;15862;43.062;25.626;2022-12-11T10:25:57;97917.72;;;22.16;63.63
28683;BME280;15862;43.062;25.626;2022-12-11T10:28:26;97927.66;;;21.74;63.56
28683;BME280;15862;43.062;25.626;2022-12-11T10:33:40;97937.63;;;20.57;73.02
28683;BME280;15862;43.062;25.626;2022-12-11T10:36:17;97947.19;;;20.22;77.36
28683;BME280;15862;43.062;25.626;2022-12-11T10:38:45;97953.59;;;19.90;79.59
28683;BME280;15862;43.062;25.626;2022-12-11T10:41:19;97962.13;;;19.43;80.87
28683;BME280;15862;43.062;25.626;2022-12-11T10:43:50;97960.59;;;19.12;84.80
28683;BME280;15862;43.062;25.626;2022-12-11T10:46:27;97953.56;;;19.06;83.50
28683;BME280;15862;43.062;25.626;2022-12-11T10:48:55;97964.03;;;19.06;84.82
28683;BME280;15862;43.062;25.626;2022-12-11T10:51:23;97974.03;;;18.60;86.22
28683;BME280;15862;43.062;25.626;2022-12-11T10:53:51;97980.25;;;18.15;89.16
28683;BME280;15862;43.062;25.626;2022-12-11T10:56:27;97996.16;;;18.07;89.86
28683;BME280;15862;43.062;25.626;2022-12-11T10:58:54;98005.72;;;17.57;89.72
28683;BME280;15862;43.062;25.626;2022-12-11T11:01:22;98018.53;;;17.26;91.42
28683;BME280;15862;43.062;25.626;2022-12-11T11:06:19;98029.16;;;16.92;94.26
28683;BME280;15862;43.062;25.626;2022-12-11T11:08:52;98034.91;;;16.68;93.95
28683;BME280;15862;43.062;25.626;2022-12-11T11:11:25;98039.25;;;16.48;94.29
28683;BME280;15862;43.062;25.626;2022-12-11T11:14:02;98029.59;;;16.36;95.70
28683;BME280;15862;43.062;25.626;2022-12-11T11:16:29;98044.47;;;16.48;95.09
28683;BME280;15862;43.062;25.626;2022-12-11T11:18:56;98052.53;;;16.66;93.54
28683;BME280;15862;43.062;25.626;2022-12-11T11:21:24;98049.28;;;16.51;94.09
28683;BME280;15862;43.062;25.626;2022-12-11T11:23:52;98042.91;;;16.60;92.35
28683;BME280;15862;43.062;25.626;2022-12-11T11:26:19;98040.47;;;16.52;92.65
28683;BME280;15862;43.062;25.626;2022-12-11T11:28:51;98047.28;;;16.53;93.11
28683;BME280;15862;43.062;25.626;2022-12-11T11:31:18;98043.28;;;16.57;93.84
28683;BME280;15862;43.062;25.626;2022-12-11T11:34:04;98021.56;;;16.31;95.70
28683;BME280;15862;43.062;25.626;2022-12-11T11:36:32;98029.09;;;16.26;97.49
28683;BME280;15862;43.062;25.626;2022-12-11T11:39:25;98045.25;;;15.75;100.00
28683;BME280;15862;43.062;25.626;2022-12-11T11:42:18;98037.25;;;15.49;100.00
28683;BME280;15862;43.062;25.626;2022-12-11T11:45:16;98048.84;;;15.46;100.00
28683;BME280;15862;43.062;25.626;2022-12-11T11:50:36;98021.78;;;14.99;100.00
28683;BME280;15862;43.062;25.626;2022-12-11T11:53:12;98038.63;;;15.03;100.00
28683;BME280;15862;43.062;25.626;2022-12-11T11:58:20;98046.44;;;14.82;100.00
28683;BME280;15862;43.062;25.626;2022-12-11T12:00:47;98058.28;;;14.70;100.00
28683;BME280;15862;43.062;25.626;2022-12-11T12:03:16;98063.34;;;14.57;100.00
28683;BME280;15862;43.062;25.626;2022-12-11T12:11:27;98077.03;;;14.66;100.00
28683;BME280;15862;43.062;25.626;2022-12-11T12:25:27;98096.25;;;13.56;100.00
28683;BME280;15862;43.062;25.626;2022-12-11T12:39:19;98132.44;;;12.67;100.00
28683;BME280;15862;43.062;25.626;2022-12-11T12:42:04;98136.84;;;12.66;100.00
28683;BME280;15862;43.062;25.626;2022-12-11T12:44:42;98134.81;;;12.46;100.00
28683;BME280;15862;43.062;25.626;2022-12-11T12:47:14;98131.25;;;12.47;100.00
28683;BME280;15862;43.062;25.626;2022-12-11T12:49:44;98116.59;;;12.31;100.00
28683;BME280;15862;43.062;25.626;2022-12-11T12:52:35;98114.19;;;12.14;100.00
28683;BME280;15862;43.062;25.626;2022-12-11T12:55:19;98109.44;;;11.79;100.00
28683;BME280;15862;43.062;25.626;2022-12-11T13:03:00;98104.72;;;12.45;100.00
28683;BME280;15862;43.062;25.626;2022-12-11T13:05:32;98113.47;;;12.36;100.00
28683;BME280;15862;43.062;25.626;2022-12-11T13:08:02;98132.97;;;12.16;100.00
28683;BME280;15862;43.062;25.626;2022-12-11T13:10:32;98140.41;;;12.19;100.00
28683;BME280;15862;43.062;25.626;2022-12-11T13:12:59;98134.91;;;12.14;100.00
28683;BME280;15862;43.062;25.626;2022-12-11T13:15:29;98126.16;;;12.15;100.00
28683;BME280;15862;43.062;25.626;2022-12-11T13:17:55;98125.56;;;12.05;100.00
28683;BME280;15862;43.062;25.626;2022-12-11T13:20:24;98133.00;;;12.00;100.00
28683;BME280;15862;43.062;25.626;2022-12-11T13:23:07;98123.78;;;12.06;100.00
28683;BME280;15862;43.062;25.626;2022-12-11T13:25:53;98149.81;;;12.04;100.00
28683;BME280;15862;43.062;25.626;2022-12-11T13:31:00;98153.41;;;11.87;100.00
28683;BME280;15862;43.062;25.626;2022-12-11T13:33:26;98163.75;;;11.87;100.00
28683;BME280;15862;43.062;25.626;2022-12-11T13:38:54;98159.72;;;11.61;100.00
28683;BME280;15862;43.062;25.626;2022-12-11T13:41:21;98153.06;;;11.50;100.00
28683;BME280;15862;43.062;25.626;2022-12-11T13:43:48;98154.41;;;11.54;100.00
28683;BME280;15862;43.062;25.626;2022-12-11T13:46:19;98155.50;;;11.60;100.00
28683;BME280;15862;43.062;25.626;2022-12-11T13:48:50;98168.25;;;11.45;100.00
28683;BME280;15862;43.062;25.626;2022-12-11T13:51:22;98171.81;;;11.44;100.00
28683;BME280;15862;43.062;25.626;2022-12-11T13:53:48;98180.84;;;11.48;100.00
28683;BME280;15862;43.062;25.626;2022-12-11T13:56:18;98172.13;;;11.41;100.00
28683;BME280;15862;43.062;25.626;2022-12-11T13:58:45;98169.88;;;11.46;100.00
28683;BME280;15862;43.062;25.626;2022-12-11T14:04:13;98197.69;;;11.52;100.00
28683;BME280;15862;43.062;25.626;2022-12-11T14:06:40;98159.47;;;11.15;100.00
28683;BME280;15862;43.062;25.626;2022-12-11T14:09:06;98186.66;;;11.35;100.00
28683;BME280;15862;43.062;25.626;2022-12-11T14:11:42;98185.06;;;11.34;100.00
28683;BME280;15862;43.062;25.626;2022-12-11T14:14:19;98193.78;;;11.33;100.00
28683;BME280;15862;43.062;25.626;2022-12-11T14:16:47;98176.00;;;11.30;100.00